Hebron, Illinois
Current Conditions -  °F | °C
As of 9:15 AM on Monday 24 Nov 2014 (Local Time) from KBUU Reporting Station
Overcast Overcast  
Wind Chill: 34°   Ceiling: 800
Heat Index: 39°   Visibility: 7mi
Dew Point: 38°   Wind: 7mph
Humidity: 97%   Direction: 250°WSW
Pressure: 29.12"   Gusts: 16mph
Location:  42.47°N, 88.43°W
Report Text: KBUU 241515Z AUTO 25006G14KT 7SM OVC008 04/04 A2912 RMK AO2 T00400035
Loading
Personal Weather Stations






























Interactive Weather Map New forecast layout! Learn more

10-Day Weather Forecast

Advertisements
Track Severe Weather on mobile